Terminal Aerodrome Forecast
Issued by NWS

Home | Current Version | Previous Version | Graphics & Text | Print | Product List | Glossary On
Versions: 1 2 3 4 5 6 7 8 9 10 11 12 13 14 15 16 17 18 19 20 21 22 23 24 25 26 27 28 29 30 31
000
FTUS43 KLOT 271919 AAA
TAFORD
TAF AMD
KORD 271919Z 2719/2824 17011G20KT P6SM VCTS BKN040CB BKN100
      TEMPO 2720/2722 4SM -TSRA BKN040CB BKN100
     FM280000 18009KT P6SM VCSH SCT040 BKN120
     FM280600 18010KT P6SM BKN040
     FM281400 20012G18KT P6SM SCT015 BKN040=

USA.gov is the U.S. government's official web portal to all federal, state and local government web resources and services.